createdAt,value
2022-09-15T00:02:35.902Z,98389.19
2022-09-15T00:05:38.580Z,98390.72
2022-09-15T00:08:41.688Z,98388.53
2022-09-15T00:11:44.353Z,98398.00
2022-09-15T00:14:47.088Z,98386.25
2022-09-15T00:17:52.039Z,98390.22
2022-09-15T00:20:54.804Z,98389.19
2022-09-15T00:23:57.820Z,98395.78
2022-09-15T00:27:00.571Z,98404.91
2022-09-15T00:30:03.312Z,98404.66
2022-09-15T00:33:07.544Z,98417.75
2022-09-15T00:36:11.516Z,98414.88
2022-09-15T00:39:14.146Z,98423.72
2022-09-15T00:42:18.075Z,98422.31
2022-09-15T00:45:20.746Z,98417.41
2022-09-15T00:48:26.910Z,98419.25
2022-09-15T00:51:34.906Z,98427.63
2022-09-15T00:54:40.543Z,98424.84
2022-09-15T00:57:46.915Z,98429.59
2022-09-15T01:00:52.503Z,98421.50
2022-09-15T01:03:56.671Z,98430.66
2022-09-15T01:07:01.468Z,98418.25
2022-09-15T01:10:07.595Z,98409.59
2022-09-15T01:13:11.524Z,98411.00
2022-09-15T01:16:16.578Z,98416.06
2022-09-15T01:19:37.368Z,98409.22
2022-09-15T01:22:48.543Z,98412.25
2022-09-15T01:26:05.700Z,98411.16
2022-09-15T01:29:23.845Z,98415.97
2022-09-15T01:32:47.540Z,98412.72
2022-09-15T01:35:53.520Z,98412.16
2022-09-15T01:39:01.050Z,98411.75
2022-09-15T01:42:06.276Z,98412.56
2022-09-15T01:45:12.303Z,98412.50
2022-09-15T01:48:15.076Z,98423.81
2022-09-15T01:51:17.908Z,98411.97
2022-09-15T01:54:22.188Z,98414.09
2022-09-15T01:57:24.924Z,98425.22
2022-09-15T02:00:30.347Z,98419.50
2022-09-15T02:03:36.176Z,98421.59
2022-09-15T02:06:40.720Z,98418.19
2022-09-15T02:09:45.905Z,98426.97
2022-09-15T02:12:53.391Z,98433.84
2022-09-15T02:16:00.147Z,98411.59
2022-09-15T02:19:11.233Z,98423.75
2022-09-15T02:22:17.711Z,98420.22
2022-09-15T02:25:22.697Z,98424.56
2022-09-15T02:28:28.809Z,98412.25
2022-09-15T02:31:36.305Z,98412.09
2022-09-15T02:34:41.496Z,98403.25
2022-09-15T02:37:44.389Z,98392.50
2022-09-15T02:40:47.900Z,98396.28
2022-09-15T02:43:51.419Z,98407.63
2022-09-15T02:46:55.571Z,98416.50
2022-09-15T02:49:58.187Z,98416.06
2022-09-15T02:53:00.897Z,98407.41
2022-09-15T02:56:04.764Z,98413.56
2022-09-15T02:59:07.477Z,98424.22
2022-09-15T03:02:12.649Z,98421.81
2022-09-15T03:05:16.474Z,98425.78
2022-09-15T03:08:19.212Z,98419.91
2022-09-15T03:11:22.902Z,98413.69
2022-09-15T03:14:25.661Z,98419.53
2022-09-15T03:17:29.925Z,98427.00
2022-09-15T03:20:32.612Z,98421.09
2022-09-15T03:23:35.407Z,98416.63
2022-09-15T03:26:38.111Z,98411.59
2022-09-15T03:29:40.758Z,98406.59
2022-09-15T03:32:44.877Z,98411.25
2022-09-15T03:35:47.616Z,98411.31
2022-09-15T03:38:50.307Z,98412.44
2022-09-15T03:41:52.972Z,98412.47
2022-09-15T03:44:55.640Z,98412.53
2022-09-15T03:47:59.713Z,98414.84
2022-09-15T03:51:02.558Z,98411.31
2022-09-15T03:54:05.390Z,98413.75
2022-09-15T03:57:08.026Z,98418.78
2022-09-15T04:00:11.376Z,98416.66
2022-09-15T04:03:15.664Z,98421.03
2022-09-15T04:06:18.619Z,98419.25
2022-09-15T04:09:21.561Z,98427.38
2022-09-15T04:12:24.247Z,98424.38
2022-09-15T04:15:26.934Z,98430.13
2022-09-15T04:18:31.002Z,98421.38
2022-09-15T04:21:33.765Z,98423.09
2022-09-15T04:24:36.567Z,98424.50
2022-09-15T04:27:39.518Z,98421.56
2022-09-15T04:30:42.158Z,98419.28
2022-09-15T04:33:46.968Z,98417.09
2022-09-15T04:36:49.837Z,98416.41
2022-09-15T04:39:52.630Z,98406.81
2022-09-15T04:42:55.524Z,98405.66
2022-09-15T04:45:58.333Z,98402.19
2022-09-15T04:49:02.434Z,98397.19
2022-09-15T04:52:09.454Z,98393.56
2022-09-15T04:55:12.454Z,98397.41
2022-09-15T04:58:15.144Z,98388.69
2022-09-15T05:01:19.131Z,98393.84
2022-09-15T05:04:23.338Z,98387.34
2022-09-15T05:07:26.500Z,98375.06
2022-09-15T05:10:29.161Z,98388.56
2022-09-15T05:13:32.005Z,98390.88
2022-09-15T05:16:34.762Z,98397.09
2022-09-15T05:19:41.495Z,98393.22
2022-09-15T05:22:44.201Z,98386.25
2022-09-15T05:25:55.051Z,98398.66
2022-09-15T05:28:58.289Z,98400.03
2022-09-15T05:32:00.954Z,98406.72
2022-09-15T05:35:06.859Z,98401.44
2022-09-15T05:38:09.580Z,98391.84
2022-09-15T05:41:13.021Z,98400.50
2022-09-15T05:44:15.738Z,98400.41
2022-09-15T05:47:18.480Z,98409.84
2022-09-15T05:50:22.478Z,98409.69
2022-09-15T05:53:25.601Z,98407.91
2022-09-15T05:56:28.352Z,98399.72
2022-09-15T05:59:31.037Z,98408.06
2022-09-15T06:02:33.802Z,98407.72
2022-09-15T06:05:37.885Z,98414.22
2022-09-15T06:08:44.467Z,98412.38
2022-09-15T06:11:47.852Z,98401.41
2022-09-15T06:14:53.565Z,98403.22
2022-09-15T06:17:56.441Z,98405.09
2022-09-15T06:21:03.664Z,98399.91
2022-09-15T06:24:07.211Z,98405.06
2022-09-15T06:27:10.273Z,98402.75
2022-09-15T06:30:13.433Z,98411.06
2022-09-15T06:33:16.528Z,98405.19
2022-09-15T06:36:21.306Z,98410.38
2022-09-15T06:39:24.670Z,98416.06
2022-09-15T06:42:27.445Z,98422.03
2022-09-15T06:45:30.556Z,98427.53
2022-09-15T06:48:33.535Z,98431.19
2022-09-15T06:51:38.914Z,98440.50
2022-09-15T06:54:41.640Z,98447.84
2022-09-15T06:57:44.532Z,98442.94
2022-09-15T07:00:47.510Z,98443.22
2022-09-15T07:03:50.305Z,98439.72
2022-09-15T07:06:54.336Z,98434.25
2022-09-15T07:09:57.067Z,98433.75
2022-09-15T07:13:01.323Z,98437.88
2022-09-15T07:16:05.131Z,98441.84
2022-09-15T07:19:07.879Z,98439.88
2022-09-15T07:22:13.056Z,98433.19
2022-09-15T07:25:15.794Z,98434.00
2022-09-15T07:28:19.190Z,98432.09
2022-09-15T07:31:23.742Z,98435.03
2022-09-15T07:34:26.425Z,98436.19
2022-09-15T07:37:30.539Z,98420.31
2022-09-15T07:40:34.256Z,98421.78
2022-09-15T07:43:37.329Z,98416.81
2022-09-15T07:46:40.049Z,98412.78
2022-09-15T07:49:43.382Z,98404.16
2022-09-15T07:52:47.497Z,98401.63
2022-09-15T07:55:53.162Z,98394.56
2022-09-15T07:58:55.886Z,98401.88
2022-09-15T08:01:59.239Z,98404.84
2022-09-15T08:05:02.027Z,98410.19
2022-09-15T08:08:06.138Z,98405.34
2022-09-15T08:11:08.966Z,98402.59
2022-09-15T08:14:11.854Z,98396.69
2022-09-15T08:17:14.544Z,98397.94
2022-09-15T08:20:17.305Z,98395.84
2022-09-15T08:23:23.042Z,98398.50
2022-09-15T08:26:26.404Z,98397.00
2022-09-15T08:29:29.327Z,98397.59
2022-09-15T08:32:32.124Z,98393.81
2022-09-15T08:35:36.924Z,98400.28
2022-09-15T08:38:41.879Z,98384.88
2022-09-15T08:41:45.379Z,98390.03
2022-09-15T08:44:51.339Z,98387.34
2022-09-15T08:47:56.208Z,98389.94
2022-09-15T08:51:00.747Z,98385.78
2022-09-15T08:54:08.624Z,98387.75
2022-09-15T08:57:14.851Z,98391.59
2022-09-15T09:00:17.992Z,98390.13
2022-09-15T09:03:30.242Z,98392.25
2022-09-15T09:06:37.125Z,98401.13
2022-09-15T09:09:43.907Z,98400.47
2022-09-15T09:12:52.103Z,98392.63
2022-09-15T09:16:05.384Z,98395.56
2022-09-15T09:19:16.458Z,98393.28
2022-09-15T09:22:21.827Z,98394.66
2022-09-15T09:25:27.924Z,98389.94
2022-09-15T09:28:32.328Z,98378.53
2022-09-15T09:31:36.249Z,98389.88
2022-09-15T09:34:44.370Z,98385.63
2022-09-15T09:37:47.368Z,98377.34
2022-09-15T09:40:52.104Z,98380.47
2022-09-15T09:43:56.875Z,98385.47
2022-09-15T09:46:59.849Z,98387.78
2022-09-15T09:50:03.537Z,98392.50
2022-09-15T09:53:20.111Z,98387.78
2022-09-15T09:56:25.356Z,98385.94
2022-09-15T09:59:35.840Z,98387.22
2022-09-15T10:02:47.364Z,98390.06
2022-09-15T10:06:02.729Z,98391.56
2022-09-15T10:09:10.361Z,98386.03
2022-09-15T10:12:20.080Z,98391.28
2022-09-15T10:15:24.190Z,98388.06
2022-09-15T10:18:29.265Z,98394.88
2022-09-15T10:21:31.966Z,98397.53
2022-09-15T10:24:35.620Z,98388.69
2022-09-15T10:27:39.751Z,98393.03
2022-09-15T10:30:59.078Z,98394.44
2022-09-15T10:34:21.737Z,98392.75
2022-09-15T10:37:28.283Z,98384.72
2022-09-15T10:40:35.398Z,98388.06
2022-09-15T10:43:45.501Z,98389.72
2022-09-15T10:46:51.805Z,98388.06
2022-09-15T10:50:08.940Z,98387.59
2022-09-15T10:53:16.268Z,98383.63
2022-09-15T10:56:25.577Z,98383.06
2022-09-15T10:59:35.323Z,98382.44
2022-09-15T11:02:50.558Z,98387.13
2022-09-15T11:06:06.434Z,98391.69
2022-09-15T11:09:20.115Z,98391.34
2022-09-15T11:12:29.405Z,98384.53
2022-09-15T11:15:47.361Z,98382.94
2022-09-15T11:19:00.668Z,98383.50
2022-09-15T11:22:08.420Z,98384.78
2022-09-15T11:25:14.813Z,98376.88
2022-09-15T11:28:21.042Z,98386.63
2022-09-15T11:31:27.872Z,98379.00
2022-09-15T11:34:34.453Z,98377.16
2022-09-15T11:37:40.228Z,98368.00
2022-09-15T11:40:47.680Z,98366.25
2022-09-15T11:44:08.058Z,98365.78
2022-09-15T11:47:31.702Z,98372.25
2022-09-15T11:50:36.374Z,98358.53
2022-09-15T11:53:41.920Z,98349.50
2022-09-15T11:56:46.117Z,98354.00
2022-09-15T11:59:52.407Z,98343.75
2022-09-15T12:03:01.622Z,98345.16
2022-09-15T12:06:08.695Z,98341.91
2022-09-15T12:09:13.425Z,98339.72
2022-09-15T12:12:18.841Z,98330.06
2022-09-15T12:15:27.439Z,98319.81
2022-09-15T12:18:40.166Z,98322.19
2022-09-15T12:21:54.800Z,98323.50
2022-09-15T12:25:01.254Z,98321.19
2022-09-15T12:28:24.464Z,98318.25
2022-09-15T12:31:28.815Z,98320.25
2022-09-15T12:34:38.521Z,98319.34
2022-09-15T12:37:44.110Z,98324.50
2022-09-15T12:40:46.838Z,98321.84
2022-09-15T12:43:53.056Z,98309.75
2022-09-15T12:46:57.226Z,98301.28
2022-09-15T12:50:03.350Z,98309.84
2022-09-15T12:53:16.795Z,98311.97
2022-09-15T12:56:23.685Z,98307.63
2022-09-15T12:59:28.024Z,98303.66
2022-09-15T13:02:44.407Z,98306.53
2022-09-15T13:06:08.154Z,98309.09
2022-09-15T13:09:26.852Z,98309.00
2022-09-15T13:12:32.661Z,98296.47
2022-09-15T13:15:40.386Z,98296.66
2022-09-15T13:18:44.461Z,98301.09
2022-09-15T13:21:50.649Z,98287.44
2022-09-15T13:24:59.268Z,98291.03
2022-09-15T13:28:05.010Z,98290.50
2022-09-15T13:31:17.485Z,98286.88
2022-09-15T13:35:05.817Z,98297.94
2022-09-15T13:38:30.691Z,98288.56
2022-09-15T13:41:45.877Z,98285.19
2022-09-15T13:45:00.792Z,98285.50
2022-09-15T13:48:10.541Z,98283.78
2022-09-15T13:51:16.639Z,98292.72
2022-09-15T13:54:23.629Z,98277.34
2022-09-15T14:01:00.879Z,98260.31
2022-09-15T14:04:05.842Z,98262.88
2022-09-15T14:07:21.232Z,98256.06
2022-09-15T14:10:26.044Z,98252.53
2022-09-15T14:13:32.252Z,98253.44
2022-09-15T14:16:36.085Z,98254.94
2022-09-15T14:19:39.780Z,98242.16
2022-09-15T14:22:42.412Z,98242.56
2022-09-15T14:25:46.409Z,98239.31
2022-09-15T14:28:52.443Z,98230.72
2022-09-15T14:32:00.783Z,98225.19
2022-09-15T14:35:05.637Z,98219.97
2022-09-15T14:38:11.150Z,98218.69
2022-09-15T14:41:19.975Z,98217.84
2022-09-15T14:47:59.765Z,98216.38
2022-09-15T14:51:03.818Z,98209.91
2022-09-15T14:54:07.362Z,98215.91
2022-09-15T14:57:10.435Z,98207.69
2022-09-15T15:00:17.856Z,98205.13
2022-09-15T15:03:25.097Z,98213.25
2022-09-15T15:06:32.046Z,98207.91
2022-09-15T15:09:38.936Z,98194.63
2022-09-15T15:12:43.116Z,98201.91
2022-09-15T15:15:47.684Z,98201.66
2022-09-15T15:18:51.554Z,98196.47
2022-09-15T15:21:54.269Z,98188.31
2022-09-15T15:24:56.937Z,98177.84
2022-09-15T15:28:00.447Z,98182.50
2022-09-15T15:31:13.845Z,98179.03
2022-09-15T15:34:24.132Z,98179.53
2022-09-15T15:37:28.122Z,98170.09
2022-09-15T15:40:32.403Z,98179.53
2022-09-15T15:43:35.894Z,98191.06
2022-09-15T15:46:56.531Z,98185.63
2022-09-15T15:50:12.799Z,98178.13
2022-09-15T15:53:17.281Z,98174.66
2022-09-15T15:56:25.673Z,98163.78
2022-09-15T15:59:28.465Z,98156.84
2022-09-15T16:02:34.439Z,98161.56
2022-09-15T16:05:40.291Z,98170.66
2022-09-15T16:08:44.971Z,98165.47
2022-09-15T16:11:47.855Z,98164.84
2022-09-15T16:14:50.582Z,98162.72
2022-09-15T16:17:55.493Z,98161.63
2022-09-15T16:20:58.136Z,98145.06
2022-09-15T16:24:00.846Z,98154.19
2022-09-15T16:27:04.523Z,98150.00
2022-09-15T16:30:08.429Z,98155.75
2022-09-15T16:33:13.975Z,98155.38
2022-09-15T16:36:20.720Z,98160.06
2022-09-15T16:39:23.608Z,98157.59
2022-09-15T16:42:26.655Z,98161.00
2022-09-15T16:45:38.200Z,98160.06
2022-09-15T16:48:44.170Z,98163.81
2022-09-15T16:51:48.234Z,98161.97
2022-09-15T16:54:50.999Z,98161.09
2022-09-15T16:57:57.800Z,98164.69
2022-09-15T17:01:02.176Z,98161.97
2022-09-15T17:04:10.133Z,98168.25
2022-09-15T17:07:15.969Z,98158.22
2022-09-15T17:10:20.758Z,98163.94
2022-09-15T17:13:27.760Z,98160.13
2022-09-15T17:16:35.464Z,98160.03
2022-09-15T17:19:38.120Z,98160.78
2022-09-15T17:22:45.996Z,98156.06
2022-09-15T17:25:53.341Z,98162.44
2022-09-15T17:28:58.239Z,98164.38
2022-09-15T17:32:01.142Z,98164.19
2022-09-15T17:35:15.603Z,98168.59
2022-09-15T17:38:21.967Z,98152.97
2022-09-15T17:41:24.915Z,98165.28
2022-09-15T17:44:30.594Z,98155.53
2022-09-15T17:47:35.781Z,98157.63
2022-09-15T17:50:39.040Z,98148.97
2022-09-15T17:53:47.416Z,98153.97
2022-09-15T17:56:57.136Z,98144.94
2022-09-15T18:00:09.198Z,98141.81
2022-09-15T18:03:19.387Z,98136.94
2022-09-15T18:06:22.494Z,98132.59
2022-09-15T18:09:31.607Z,98131.41
2022-09-15T18:12:35.820Z,98138.31
2022-09-15T18:15:42.053Z,98139.38
2022-09-15T18:18:45.981Z,98125.09
2022-09-15T18:21:52.896Z,98115.13
2022-09-15T18:25:01.317Z,98119.13
2022-09-15T18:28:09.536Z,98110.53
2022-09-15T18:31:19.161Z,98103.16
2022-09-15T18:34:22.744Z,98103.22
2022-09-15T18:37:32.121Z,98103.03
2022-09-15T18:40:41.700Z,98091.16
2022-09-15T18:43:49.602Z,98088.75
2022-09-15T18:46:53.041Z,98090.56
2022-09-15T18:49:56.064Z,98079.44
2022-09-15T18:53:02.628Z,98087.91
2022-09-15T18:56:15.064Z,98088.97
2022-09-15T18:59:21.813Z,98096.38
2022-09-15T19:02:26.537Z,98103.19
2022-09-15T19:05:30.223Z,98090.25
2022-09-15T19:08:34.529Z,98088.63
2022-09-15T19:11:42.436Z,98088.78
2022-09-15T19:14:46.838Z,98087.53
2022-09-15T19:17:49.869Z,98099.94
2022-09-15T19:20:53.258Z,98095.63
2022-09-15T19:23:57.151Z,98090.25
2022-09-15T19:27:03.167Z,98089.19
2022-09-15T19:30:07.290Z,98091.44
2022-09-15T19:33:18.641Z,98092.94
2022-09-15T19:36:29.138Z,98085.28
2022-09-15T19:39:33.567Z,98091.91
2022-09-15T19:42:40.972Z,98093.75
2022-09-15T19:45:44.474Z,98084.78
2022-09-15T19:48:47.927Z,98085.59
2022-09-15T19:51:55.716Z,98080.34
2022-09-15T19:54:58.511Z,98094.38
2022-09-15T19:58:02.635Z,98084.91
2022-09-15T20:01:05.397Z,98090.06
2022-09-15T20:04:08.693Z,98091.50
2022-09-15T20:07:12.549Z,98091.50
2022-09-15T20:10:15.731Z,98095.22
2022-09-15T20:13:20.454Z,98084.09
2022-09-15T20:16:24.277Z,98083.13
2022-09-15T20:19:27.063Z,98075.66
2022-09-15T20:22:29.776Z,98081.66
2022-09-15T20:25:32.687Z,98071.53
2022-09-15T20:28:37.246Z,98076.69
2022-09-15T20:31:39.958Z,98078.53
2022-09-15T20:34:43.015Z,98082.50
2022-09-15T20:37:45.727Z,98073.03
2022-09-15T20:40:48.425Z,98070.56
2022-09-15T20:43:52.469Z,98078.34
2022-09-15T20:46:55.195Z,98067.38
2022-09-15T20:49:57.850Z,98065.78
2022-09-15T20:53:00.564Z,98060.28
2022-09-15T20:56:04.638Z,98061.72
2022-09-15T20:59:10.579Z,98060.50
2022-09-15T21:02:13.358Z,98059.31
2022-09-15T21:05:16.107Z,98056.56
2022-09-15T21:08:18.789Z,98052.81
2022-09-15T21:11:21.920Z,98052.06
2022-09-15T21:14:25.972Z,98040.94
2022-09-15T21:17:29.019Z,98042.19
2022-09-15T21:20:31.680Z,98043.81
2022-09-15T21:23:35.473Z,98035.81
2022-09-15T21:27:01.026Z,98038.06
2022-09-15T21:30:05.426Z,98044.84
2022-09-15T21:33:08.307Z,98041.41
2022-09-15T21:36:12.084Z,98039.09
2022-09-15T21:39:14.748Z,98041.78
2022-09-15T21:42:17.520Z,98051.66
2022-09-15T21:45:21.535Z,98046.09
2022-09-15T21:48:24.412Z,98041.78
2022-09-15T21:51:27.947Z,98040.56
2022-09-15T21:54:31.536Z,98031.06
2022-09-15T21:57:34.205Z,98021.19
2022-09-15T22:00:40.224Z,98019.19
2022-09-15T22:03:43.397Z,98014.00
2022-09-15T22:06:47.319Z,98020.38
2022-09-15T22:09:49.966Z,98016.31
2022-09-15T22:12:53.063Z,98023.69
2022-09-15T22:16:02.471Z,98022.06
2022-09-15T22:19:05.436Z,98012.34
2022-09-15T22:22:08.346Z,98015.44
2022-09-15T22:25:11.122Z,98005.16
2022-09-15T22:28:13.848Z,98010.31
2022-09-15T22:31:19.032Z,98006.19
2022-09-15T22:34:21.896Z,98006.81
2022-09-15T22:37:27.586Z,98005.97
2022-09-15T22:40:30.356Z,98009.47
2022-09-15T22:43:33.303Z,98003.13
2022-09-15T22:46:37.373Z,97995.94
2022-09-15T22:49:40.030Z,98005.59
2022-09-15T22:52:42.692Z,98005.84
2022-09-15T22:55:45.508Z,98003.50
2022-09-15T22:58:49.326Z,98000.84
2022-09-15T23:01:53.418Z,97995.34
2022-09-15T23:04:56.263Z,97995.34
2022-09-15T23:07:58.962Z,97993.31
2022-09-15T23:11:02.760Z,97998.16
2022-09-15T23:14:05.488Z,97992.38
2022-09-15T23:17:09.584Z,97995.16
2022-09-15T23:20:12.342Z,98002.41
2022-09-15T23:23:14.972Z,98005.34
2022-09-15T23:26:18.610Z,98006.72
2022-09-15T23:29:21.259Z,98004.19
2022-09-15T23:32:25.315Z,98009.25
2022-09-15T23:35:27.973Z,98003.56
2022-09-15T23:38:30.819Z,97995.63
2022-09-15T23:41:33.519Z,97983.47
2022-09-15T23:44:36.230Z,97985.56
2022-09-15T23:47:40.294Z,97987.22
2022-09-15T23:50:43.147Z,97983.03
2022-09-15T23:53:46.022Z,97975.75
2022-09-15T23:56:48.692Z,97982.13
2022-09-15T23:59:51.661Z,97987.53
